createdAt,value
2022-12-11T00:01:17.087Z,4.85
2022-12-11T00:03:44.244Z,4.88
2022-12-11T00:06:13.559Z,4.84
2022-12-11T00:08:40.512Z,4.77
2022-12-11T00:11:13.641Z,4.80
2022-12-11T00:13:40.503Z,4.74
2022-12-11T00:16:07.660Z,4.72
2022-12-11T00:18:35.003Z,4.69
2022-12-11T00:21:03.086Z,4.69
2022-12-11T00:23:30.104Z,4.68
2022-12-11T00:25:57.139Z,4.65
2022-12-11T00:28:24.081Z,4.66
2022-12-11T00:30:50.923Z,4.59
2022-12-11T00:33:18.019Z,4.57
2022-12-11T00:35:47.017Z,4.58
2022-12-11T00:38:19.079Z,4.52
2022-12-11T00:40:45.874Z,4.50
2022-12-11T00:43:13.226Z,4.46
2022-12-11T00:45:44.663Z,4.45
2022-12-11T00:48:12.229Z,4.41
2022-12-11T00:50:40.172Z,4.41
2022-12-11T00:53:07.371Z,4.39
2022-12-11T00:55:39.262Z,4.33
2022-12-11T00:58:06.987Z,4.32
2022-12-11T01:00:34.365Z,4.29
2022-12-11T01:03:01.353Z,4.29
2022-12-11T01:05:28.459Z,4.26
2022-12-11T01:07:55.708Z,4.19
2022-12-11T01:10:25.977Z,4.23
2022-12-11T01:13:02.332Z,4.25
2022-12-11T01:15:32.706Z,4.12
2022-12-11T01:17:59.881Z,4.17
2022-12-11T01:20:28.114Z,4.19
2022-12-11T01:22:59.906Z,4.17
2022-12-11T01:25:27.840Z,4.10
2022-12-11T01:27:55.902Z,4.10
2022-12-11T01:30:25.187Z,4.06
2022-12-11T01:32:52.446Z,4.05
2022-12-11T01:35:19.625Z,4.01
2022-12-11T01:37:46.680Z,4.01
2022-12-11T01:40:15.239Z,3.90
2022-12-11T01:42:42.233Z,3.90
2022-12-11T01:45:30.258Z,3.82
2022-12-11T01:48:29.578Z,3.80
2022-12-11T01:51:04.577Z,3.78
2022-12-11T01:53:35.802Z,3.73
2022-12-11T01:56:03.602Z,3.71
2022-12-11T01:58:35.065Z,3.69
2022-12-11T02:01:03.095Z,3.62
2022-12-11T02:03:30.010Z,3.58
2022-12-11T02:06:00.732Z,3.54
2022-12-11T02:08:27.627Z,3.53
2022-12-11T02:11:01.612Z,3.49
2022-12-11T02:13:35.767Z,3.47
2022-12-11T02:16:19.751Z,3.40
2022-12-11T02:19:12.926Z,3.37
2022-12-11T02:21:44.003Z,3.31
2022-12-11T02:24:43.109Z,3.25
2022-12-11T02:27:36.617Z,3.20
2022-12-11T02:30:09.321Z,3.15
2022-12-11T02:32:55.162Z,3.10
2022-12-11T02:35:34.300Z,3.01
2022-12-11T02:38:09.322Z,2.95
2022-12-11T02:40:39.434Z,2.91
2022-12-11T02:43:10.192Z,2.82
2022-12-11T02:45:38.057Z,2.79
2022-12-11T02:48:06.310Z,2.79
2022-12-11T02:50:33.925Z,2.73
2022-12-11T02:53:02.601Z,2.70
2022-12-11T02:55:29.923Z,2.69
2022-12-11T02:58:03.625Z,2.63
2022-12-11T03:00:30.733Z,2.56
2022-12-11T03:02:57.973Z,2.60
2022-12-11T03:05:24.972Z,2.51
2022-12-11T03:07:52.131Z,2.53
2022-12-11T03:10:19.676Z,2.57
2022-12-11T03:12:53.573Z,2.49
2022-12-11T03:15:22.344Z,2.45
2022-12-11T03:18:16.216Z,2.43
2022-12-11T03:20:54.475Z,2.50
2022-12-11T03:23:31.122Z,2.44
2022-12-11T03:26:10.353Z,2.44
2022-12-11T03:29:09.347Z,2.39
2022-12-11T03:31:42.769Z,2.38
2022-12-11T03:34:16.655Z,2.25
2022-12-11T03:36:44.094Z,2.23
2022-12-11T03:39:18.464Z,2.18
2022-12-11T03:41:46.583Z,2.21
2022-12-11T03:44:14.274Z,2.22
2022-12-11T03:46:41.505Z,2.21
2022-12-11T03:49:21.315Z,2.21
2022-12-11T03:51:50.596Z,2.14
2022-12-11T03:54:18.121Z,2.16
2022-12-11T03:56:46.051Z,2.17
2022-12-11T03:59:13.219Z,2.15
2022-12-11T04:01:40.345Z,2.15
2022-12-11T04:04:07.729Z,2.14
2022-12-11T04:06:34.595Z,2.11
2022-12-11T04:09:01.368Z,2.11
2022-12-11T04:11:37.283Z,2.06
2022-12-11T04:14:28.043Z,1.96
2022-12-11T04:16:55.262Z,2.05
2022-12-11T04:19:41.171Z,2.06
2022-12-11T04:22:27.081Z,2.04
2022-12-11T04:24:53.864Z,1.99
2022-12-11T04:27:39.971Z,1.95
2022-12-11T04:30:10.986Z,1.96
2022-12-11T04:32:37.892Z,1.93
2022-12-11T04:35:06.091Z,1.94
2022-12-11T04:37:32.896Z,1.89
2022-12-11T04:39:59.847Z,1.88
2022-12-11T04:42:26.754Z,1.86
2022-12-11T04:44:53.621Z,1.84
2022-12-11T04:47:20.464Z,1.81
2022-12-11T04:49:47.444Z,1.79
2022-12-11T04:52:15.372Z,1.81
2022-12-11T04:54:42.187Z,1.81
2022-12-11T04:57:09.182Z,1.78
2022-12-11T04:59:37.227Z,1.80
2022-12-11T05:02:04.717Z,1.83
2022-12-11T05:04:33.178Z,1.83
2022-12-11T05:07:00.360Z,1.85
2022-12-11T05:09:27.871Z,1.84
2022-12-11T05:11:54.712Z,1.83
2022-12-11T05:14:21.962Z,1.80
2022-12-11T05:16:48.997Z,1.89
2022-12-11T05:19:15.827Z,1.85
2022-12-11T05:21:42.728Z,1.88
2022-12-11T05:24:09.598Z,1.86
2022-12-11T05:26:36.413Z,1.85
2022-12-11T05:29:03.553Z,1.87
2022-12-11T05:31:30.409Z,1.84
2022-12-11T05:33:57.243Z,1.84
2022-12-11T05:36:26.315Z,1.84
2022-12-11T05:38:53.589Z,1.79
2022-12-11T05:41:22.959Z,1.79
2022-12-11T05:43:50.024Z,1.79
2022-12-11T05:46:19.925Z,1.79
2022-12-11T05:48:49.715Z,1.72
2022-12-11T05:51:27.385Z,1.71
2022-12-11T05:53:55.838Z,1.72
2022-12-11T05:56:26.344Z,1.75
2022-12-11T05:58:53.677Z,1.73
2022-12-11T06:01:23.260Z,1.75
2022-12-11T06:03:50.230Z,1.71
2022-12-11T06:06:17.196Z,1.68
2022-12-11T06:08:44.248Z,1.72
2022-12-11T06:11:15.059Z,1.71
2022-12-11T06:13:44.116Z,1.71
2022-12-11T06:16:11.236Z,1.69
2022-12-11T06:18:40.719Z,1.69
2022-12-11T06:21:14.096Z,1.69
2022-12-11T06:23:41.681Z,1.70
2022-12-11T06:26:09.493Z,1.70
2022-12-11T06:28:36.526Z,1.69
2022-12-11T06:31:03.599Z,1.72
2022-12-11T06:33:30.718Z,1.68
2022-12-11T06:36:05.608Z,1.70
2022-12-11T06:38:32.733Z,1.68
2022-12-11T06:41:02.543Z,1.68
2022-12-11T06:43:29.800Z,1.68
2022-12-11T06:46:02.109Z,1.68
2022-12-11T06:48:30.961Z,1.68
2022-12-11T06:50:57.975Z,1.69
2022-12-11T06:53:25.751Z,1.67
2022-12-11T06:55:52.530Z,1.64
2022-12-11T06:58:19.467Z,1.64
2022-12-11T07:00:46.657Z,1.67
2022-12-11T07:03:13.784Z,1.67
2022-12-11T07:05:47.182Z,1.69
2022-12-11T07:08:17.507Z,1.63
2022-12-11T07:10:45.337Z,1.67
2022-12-11T07:13:12.635Z,1.66
2022-12-11T07:15:40.668Z,1.63
2022-12-11T07:18:07.657Z,1.69
2022-12-11T07:20:34.996Z,1.72
2022-12-11T07:23:02.240Z,1.78
2022-12-11T07:25:29.542Z,1.73
2022-12-11T07:27:57.319Z,1.72
2022-12-11T07:30:24.828Z,1.74
2022-12-11T07:32:51.984Z,1.76
2022-12-11T07:35:19.517Z,1.78
2022-12-11T07:37:47.173Z,1.84
2022-12-11T07:40:14.738Z,1.86
2022-12-11T07:42:46.148Z,1.89
2022-12-11T07:45:14.693Z,1.93
2022-12-11T07:47:42.202Z,1.93
2022-12-11T07:50:10.401Z,1.96
2022-12-11T07:52:37.735Z,1.99
2022-12-11T07:55:06.362Z,1.89
2022-12-11T07:57:35.508Z,2.03
2022-12-11T08:00:02.440Z,2.04
2022-12-11T08:02:35.581Z,1.98
2022-12-11T08:05:04.446Z,2.01
2022-12-11T08:07:31.416Z,2.07
2022-12-11T08:10:00.286Z,2.11
2022-12-11T08:12:27.117Z,2.09
2022-12-11T08:14:53.922Z,2.13
2022-12-11T08:17:25.911Z,2.15
2022-12-11T08:19:56.333Z,2.15
2022-12-11T08:22:23.362Z,2.15
2022-12-11T08:24:50.159Z,2.17
2022-12-11T08:27:17.112Z,2.18
2022-12-11T08:29:44.526Z,2.14
2022-12-11T08:32:13.674Z,2.21
2022-12-11T08:34:40.539Z,2.20
2022-12-11T08:37:07.388Z,2.21
2022-12-11T08:39:34.420Z,2.20
2022-12-11T08:42:01.286Z,2.21
2022-12-11T08:44:28.397Z,2.21
2022-12-11T08:46:55.198Z,2.21
2022-12-11T08:49:22.478Z,2.19
2022-12-11T08:51:49.645Z,2.22
2022-12-11T08:54:16.747Z,2.22
2022-12-11T08:56:43.932Z,2.26
2022-12-11T08:59:10.906Z,2.28
2022-12-11T09:01:37.769Z,2.30
2022-12-11T09:04:04.574Z,2.34
2022-12-11T09:10:32.638Z,2.30
2022-12-11T09:12:59.662Z,2.36
2022-12-11T09:15:26.452Z,2.34
2022-12-11T09:17:53.374Z,2.37
2022-12-11T09:20:20.332Z,2.39
2022-12-11T09:22:47.347Z,2.40
2022-12-11T09:25:14.294Z,2.28
2022-12-11T09:27:42.153Z,2.37
2022-12-11T09:30:09.416Z,2.36
2022-12-11T09:32:36.382Z,2.32
2022-12-11T09:35:03.462Z,2.34
2022-12-11T09:37:30.336Z,2.35
2022-12-11T09:40:00.211Z,2.33
2022-12-11T09:42:36.416Z,2.33
2022-12-11T09:45:04.900Z,2.32
2022-12-11T09:47:36.918Z,2.36
2022-12-11T09:50:16.211Z,2.39
2022-12-11T09:52:49.108Z,2.39
2022-12-11T09:55:20.336Z,2.40
2022-12-11T09:57:59.300Z,2.38
2022-12-11T10:00:48.718Z,2.42
2022-12-11T10:03:30.972Z,2.43
2022-12-11T10:06:20.287Z,2.47
2022-12-11T10:08:47.728Z,2.48
2022-12-11T10:11:33.106Z,2.46
2022-12-11T10:14:13.385Z,2.49
2022-12-11T10:16:50.960Z,2.52
2022-12-11T10:19:25.142Z,2.51
2022-12-11T10:21:52.765Z,2.50
2022-12-11T10:25:09.352Z,2.56
2022-12-11T10:27:31.497Z,2.50
2022-12-11T10:30:14.948Z,2.58
2022-12-11T10:33:18.537Z,2.60
2022-12-11T10:35:50.334Z,2.61
2022-12-11T10:38:22.345Z,2.62
2022-12-11T10:40:55.835Z,2.64
2022-12-11T10:43:33.360Z,2.63
2022-12-11T10:46:00.708Z,2.61
2022-12-11T10:48:27.657Z,2.62
2022-12-11T10:51:05.898Z,2.58
2022-12-11T10:53:34.085Z,2.55
2022-12-11T10:56:02.000Z,2.53
2022-12-11T10:58:33.943Z,2.52
2022-12-11T11:01:06.355Z,2.52
2022-12-11T11:03:34.865Z,2.54
2022-12-11T11:06:17.217Z,2.58
2022-12-11T11:08:46.750Z,2.53
2022-12-11T11:11:33.849Z,2.47
2022-12-11T11:14:12.392Z,2.52
2022-12-11T11:16:43.604Z,2.47
2022-12-11T11:19:38.519Z,2.45
2022-12-11T11:22:13.973Z,2.45
2022-12-11T11:24:47.520Z,2.30
2022-12-11T11:27:30.492Z,2.48
2022-12-11T11:30:03.192Z,2.45
2022-12-11T11:32:34.027Z,2.50
2022-12-11T11:35:27.971Z,2.52
2022-12-11T11:38:09.815Z,2.49
2022-12-11T11:40:42.581Z,2.48
2022-12-11T11:43:37.437Z,2.45
2022-12-11T11:46:26.139Z,2.47
2022-12-11T11:49:41.897Z,2.48
2022-12-11T11:52:25.890Z,2.52
2022-12-11T11:55:06.177Z,2.54
2022-12-11T11:57:42.525Z,2.56
2022-12-11T12:00:33.565Z,2.55
2022-12-11T12:03:05.843Z,2.54
2022-12-11T12:05:59.931Z,2.53
2022-12-11T12:08:33.811Z,2.51
2022-12-11T12:11:13.752Z,2.51
2022-12-11T12:13:59.376Z,2.49
2022-12-11T12:16:58.788Z,2.44
2022-12-11T12:19:41.755Z,2.46
2022-12-11T12:22:44.504Z,2.44
2022-12-11T12:25:22.515Z,2.45
2022-12-11T12:27:53.191Z,2.45
2022-12-11T12:30:23.061Z,2.44
2022-12-11T12:33:03.007Z,2.46
2022-12-11T12:35:36.621Z,2.45
2022-12-11T12:38:22.054Z,2.45
2022-12-11T12:41:19.622Z,2.46
2022-12-11T12:44:12.549Z,2.45
2022-12-11T12:46:50.768Z,2.46
2022-12-11T12:49:43.276Z,2.47
2022-12-11T12:52:31.625Z,2.46
2022-12-11T12:55:14.622Z,2.46
2022-12-11T12:57:57.493Z,2.43
2022-12-11T13:00:42.087Z,2.50
2022-12-11T13:03:18.973Z,2.49
2022-12-11T13:06:05.169Z,2.49
2022-12-11T13:08:39.803Z,2.52
2022-12-11T13:11:09.706Z,2.53
2022-12-11T13:13:43.015Z,2.54
2022-12-11T13:16:15.671Z,2.55
2022-12-11T13:18:44.718Z,2.54
2022-12-11T13:21:33.857Z,2.58
2022-12-11T13:24:21.748Z,2.58
2022-12-11T13:26:50.772Z,2.56
2022-12-11T13:29:41.268Z,2.56
2022-12-11T13:32:08.047Z,2.57
2022-12-11T13:34:40.356Z,2.57
2022-12-11T13:37:17.272Z,2.55
2022-12-11T13:39:46.754Z,2.56
2022-12-11T13:42:27.291Z,2.54
2022-12-11T13:44:54.362Z,2.56
2022-12-11T13:47:21.331Z,2.56
2022-12-11T13:49:54.610Z,2.55
2022-12-11T13:52:25.845Z,2.55
2022-12-11T13:54:53.917Z,2.53
2022-12-11T13:57:23.328Z,2.53
2022-12-11T13:59:55.241Z,2.53
2022-12-11T14:02:29.232Z,2.47
2022-12-11T14:04:59.079Z,2.43
2022-12-11T14:07:32.105Z,2.42
2022-12-11T14:10:05.928Z,2.25
2022-12-11T14:12:33.123Z,2.38
2022-12-11T14:15:02.059Z,2.38
2022-12-11T14:17:31.903Z,2.35
2022-12-11T14:20:01.534Z,2.32
2022-12-11T14:22:30.116Z,2.31
2022-12-11T14:24:59.978Z,2.26
2022-12-11T14:27:27.909Z,2.25
2022-12-11T14:29:57.539Z,2.22
2022-12-11T14:32:38.520Z,2.20
2022-12-11T14:35:11.951Z,2.16
2022-12-11T14:37:39.408Z,1.93
2022-12-11T14:40:10.374Z,2.11
2022-12-11T14:42:41.486Z,2.09
2022-12-11T14:45:26.616Z,2.06
2022-12-11T14:47:54.348Z,2.02
2022-12-11T14:50:28.163Z,2.03
2022-12-11T14:52:58.648Z,2.03
2022-12-11T14:55:29.259Z,2.02
2022-12-11T14:58:02.180Z,2.03
2022-12-11T15:00:31.953Z,2.00
2022-12-11T15:03:01.777Z,1.98
2022-12-11T15:05:30.078Z,1.99
2022-12-11T15:08:30.559Z,1.95
2022-12-11T15:11:03.382Z,1.94
2022-12-11T15:13:31.081Z,1.91
2022-12-11T15:15:58.794Z,1.89
2022-12-11T15:18:35.403Z,1.86
2022-12-11T15:21:09.493Z,1.89
2022-12-11T15:24:00.709Z,1.86
2022-12-11T15:26:39.019Z,1.83
2022-12-11T15:29:23.848Z,1.78
2022-12-11T15:32:21.073Z,1.79
2022-12-11T15:34:55.311Z,1.73
2022-12-11T15:37:31.548Z,1.71
2022-12-11T15:40:01.507Z,1.69
2022-12-11T15:42:37.035Z,1.58
2022-12-11T15:45:07.577Z,1.64
2022-12-11T15:47:34.496Z,1.60
2022-12-11T15:50:23.130Z,1.61
2022-12-11T15:52:51.535Z,1.53
2022-12-11T15:55:19.165Z,1.53
2022-12-11T15:57:49.516Z,1.51
2022-12-11T16:00:18.831Z,1.49
2022-12-11T16:02:48.466Z,1.49
2022-12-11T16:05:15.899Z,1.42
2022-12-11T16:07:42.959Z,1.45
2022-12-11T16:10:15.569Z,1.42
2022-12-11T16:12:43.436Z,1.41
2022-12-11T16:15:14.444Z,1.39
2022-12-11T16:17:43.264Z,1.37
2022-12-11T16:20:11.197Z,1.32
2022-12-11T16:22:38.119Z,1.29
2022-12-11T16:25:05.976Z,1.28
2022-12-11T16:27:32.953Z,1.26
2022-12-11T16:30:02.096Z,1.23
2022-12-11T16:32:29.002Z,1.23
2022-12-11T16:35:00.704Z,1.20
2022-12-11T16:37:27.933Z,1.18
2022-12-11T16:39:56.774Z,1.18
2022-12-11T16:42:23.568Z,1.17
2022-12-11T16:44:50.627Z,1.13
2022-12-11T16:47:17.516Z,1.10
2022-12-11T16:49:44.732Z,1.10
2022-12-11T16:52:11.684Z,1.10
2022-12-11T16:54:38.832Z,1.15
2022-12-11T16:57:06.221Z,1.09
2022-12-11T16:59:37.076Z,1.12
2022-12-11T17:02:05.237Z,1.09
2022-12-11T17:04:32.631Z,1.14
2022-12-11T17:06:59.473Z,1.14
2022-12-11T17:09:26.446Z,1.12
2022-12-11T17:11:53.489Z,1.06
2022-12-11T17:14:20.413Z,1.08
2022-12-11T17:16:48.152Z,1.13
2022-12-11T17:19:15.769Z,1.08
2022-12-11T17:21:47.020Z,1.02
2022-12-11T17:24:17.893Z,1.03
2022-12-11T17:26:44.784Z,0.99
2022-12-11T17:29:12.542Z,0.98
2022-12-11T17:31:39.883Z,0.95
2022-12-11T17:34:07.173Z,0.95
2022-12-11T17:36:34.717Z,0.94
2022-12-11T17:39:01.982Z,0.92
2022-12-11T17:41:29.154Z,0.94
2022-12-11T17:43:56.282Z,0.90
2022-12-11T17:46:23.366Z,0.88
2022-12-11T17:48:50.758Z,0.89
2022-12-11T17:51:23.983Z,0.92
2022-12-11T17:53:52.325Z,0.91
2022-12-11T17:56:19.211Z,0.89
2022-12-11T17:58:46.308Z,0.88
2022-12-11T18:01:13.389Z,0.89
2022-12-11T18:03:41.033Z,0.88
2022-12-11T18:06:13.616Z,0.85
2022-12-11T18:08:41.584Z,0.85
2022-12-11T18:11:11.892Z,0.86
2022-12-11T18:13:39.643Z,0.83
2022-12-11T18:16:27.063Z,0.82
2022-12-11T18:18:54.083Z,0.83
2022-12-11T18:21:25.485Z,0.82
2022-12-11T18:23:52.913Z,0.81
2022-12-11T18:26:20.561Z,0.80
2022-12-11T18:28:48.874Z,0.81
2022-12-11T18:31:17.113Z,0.77
2022-12-11T18:33:45.015Z,0.81
2022-12-11T18:36:14.077Z,0.77
2022-12-11T18:38:42.263Z,0.77
2022-12-11T18:41:11.486Z,0.78
2022-12-11T18:43:39.071Z,0.74
2022-12-11T18:46:10.510Z,0.76
2022-12-11T18:48:37.723Z,0.78
2022-12-11T18:51:09.631Z,0.73
2022-12-11T18:53:37.323Z,0.75
2022-12-11T18:56:10.227Z,0.78
2022-12-11T18:58:37.701Z,0.78
2022-12-11T19:01:20.074Z,0.79
2022-12-11T19:03:47.987Z,0.78
2022-12-11T19:06:19.828Z,0.75
2022-12-11T19:08:47.426Z,0.76
2022-12-11T19:11:19.397Z,0.79
2022-12-11T19:13:46.639Z,0.79
2022-12-11T19:16:25.519Z,0.76
2022-12-11T19:18:52.939Z,0.75
2022-12-11T19:21:19.897Z,0.75
2022-12-11T19:23:47.109Z,0.74
2022-12-11T19:26:19.218Z,0.65
2022-12-11T19:28:47.040Z,0.73
2022-12-11T19:31:19.654Z,0.71
2022-12-11T19:33:47.336Z,0.67
2022-12-11T19:36:16.687Z,0.68
2022-12-11T19:38:45.692Z,0.65
2022-12-11T19:41:15.454Z,0.65
2022-12-11T19:43:42.721Z,0.65
2022-12-11T19:46:10.138Z,0.62
2022-12-11T19:48:41.518Z,0.63
2022-12-11T19:51:12.418Z,0.63
2022-12-11T19:53:40.859Z,0.62
2022-12-11T19:56:08.132Z,0.64
2022-12-11T19:58:35.476Z,0.60
2022-12-11T20:01:03.235Z,0.59
2022-12-11T20:03:30.404Z,0.57
2022-12-11T20:06:02.959Z,0.57
2022-12-11T20:08:46.442Z,0.58
2022-12-11T20:11:18.326Z,0.54
2022-12-11T20:13:47.798Z,0.53
2022-12-11T20:16:16.039Z,0.54
2022-12-11T20:18:43.545Z,0.54
2022-12-11T20:21:14.358Z,0.51
2022-12-11T20:23:41.652Z,0.52
2022-12-11T20:26:10.930Z,0.50
2022-12-11T20:28:38.410Z,0.51
2022-12-11T20:31:16.443Z,0.50
2022-12-11T20:33:47.952Z,0.49
2022-12-11T20:36:16.331Z,0.48
2022-12-11T20:38:43.489Z,0.43
2022-12-11T20:41:13.384Z,0.43
2022-12-11T20:43:40.564Z,0.40
2022-12-11T20:46:10.257Z,0.42
2022-12-11T20:48:37.807Z,0.39
2022-12-11T20:51:06.458Z,0.39
2022-12-11T20:53:34.962Z,0.39
2022-12-11T20:56:02.992Z,0.38
2022-12-11T20:58:30.072Z,0.39
2022-12-11T21:00:58.442Z,0.37
2022-12-11T21:03:25.493Z,0.35
2022-12-11T21:05:52.429Z,0.35
2022-12-11T21:08:19.341Z,0.34
2022-12-11T21:10:46.472Z,0.38
2022-12-11T21:13:13.335Z,0.39
2022-12-11T21:15:40.835Z,0.31
2022-12-11T21:18:08.337Z,0.36
2022-12-11T21:20:35.794Z,0.35
2022-12-11T21:23:03.712Z,0.28
2022-12-11T21:25:30.635Z,0.27
2022-12-11T21:27:57.642Z,0.26
2022-12-11T21:30:25.794Z,0.22
2022-12-11T21:32:53.270Z,0.22
2022-12-11T21:35:20.366Z,0.16
2022-12-11T21:37:48.620Z,0.15
2022-12-11T21:40:15.794Z,0.08
2022-12-11T21:42:42.950Z,0.12
2022-12-11T21:47:56.949Z,0.02
2022-12-11T21:50:23.858Z,0.03
2022-12-11T21:52:50.819Z,-0.02
2022-12-11T21:55:18.219Z,-0.01
2022-12-11T21:57:45.029Z,-0.01
2022-12-11T22:00:12.616Z,-0.05
2022-12-11T22:02:41.249Z,-0.05
2022-12-11T22:05:09.137Z,-0.10
2022-12-11T22:07:36.153Z,-0.04
2022-12-11T22:10:04.399Z,-0.06
2022-12-11T22:12:31.608Z,-0.08
2022-12-11T22:14:58.393Z,-0.20
2022-12-11T22:17:25.191Z,-0.09
2022-12-11T22:19:52.702Z,-0.09
2022-12-11T22:22:19.628Z,-0.11
2022-12-11T22:24:46.594Z,-0.10
2022-12-11T22:27:13.486Z,-0.13
2022-12-11T22:29:40.557Z,-0.17
2022-12-11T22:32:07.369Z,-0.17
2022-12-11T22:34:34.134Z,-0.21
2022-12-11T22:37:01.017Z,-0.21
2022-12-11T22:39:27.823Z,-0.25
2022-12-11T22:41:54.613Z,-0.27
2022-12-11T22:44:21.556Z,-0.31
2022-12-11T22:46:50.455Z,-0.32
2022-12-11T22:49:18.871Z,-0.34
2022-12-11T22:51:46.159Z,-0.35
2022-12-11T22:54:13.063Z,-0.36
2022-12-11T22:56:39.897Z,-0.42
2022-12-11T22:59:07.645Z,-0.47
2022-12-11T23:01:34.695Z,-0.42
2022-12-11T23:04:01.593Z,-0.43
2022-12-11T23:06:28.461Z,-0.49
2022-12-11T23:08:58.462Z,-0.50
2022-12-11T23:11:29.214Z,-0.48
2022-12-11T23:13:56.123Z,-0.52
2022-12-11T23:16:26.146Z,-0.53
2022-12-11T23:18:54.139Z,-0.59
2022-12-11T23:21:21.877Z,-0.62
2022-12-11T23:23:48.980Z,-0.55
2022-12-11T23:26:18.647Z,-0.65
2022-12-11T23:28:46.408Z,-0.66
2022-12-11T23:31:14.475Z,-0.63
2022-12-11T23:33:41.855Z,-0.69
2022-12-11T23:36:09.128Z,-0.92
2022-12-11T23:38:36.061Z,-0.75
2022-12-11T23:41:04.443Z,-0.77
2022-12-11T23:43:31.667Z,-0.77
2022-12-11T23:45:58.573Z,-0.74
2022-12-11T23:48:25.463Z,-0.83
2022-12-11T23:50:52.811Z,-0.85
2022-12-11T23:53:20.417Z,-0.90
2022-12-11T23:55:47.199Z,-0.89
2022-12-11T23:58:14.065Z,-0.94
